Kremmling, CO

05:16 AM MDT del 29 Marzo 2017 (GMT -0600)
Kremmling | | Change Station

Alt. 7411 ft 40.05 °N, 106.37 °W | Updated 22 minutes ago

Parzialmente nuvoloso
Parzialmente nuvoloso
37 °F
Sembra 32 °F
N
7
Vento Variabile Vento da Nord

Oggi
Massima -- | Minima -- °F
--% Possibilità di precip.
Ieri
Massima -- | Minima -- °F
Precip. -- in
Pressione 30.10 in
Visibilità 10.0 miglia
Nuvole Nubi sparse 6500 ft
Raffreddamento del vento 32 °F
Punto di rugiada 30 °F
Umidità 75%
Piovosità 0.00 in
Spessore del manto nevoso Non disponibile.
6:53 AM 7:27 PM
Luna crescente, 3% visible
METAR K20V 291054Z AUTO 36006KT 10SM SCT065 03/M01 A3010 RMK AO2
Pressione 30.10 in
Visibilità 10.0 miglia
Nuvole Nubi sparse 6500 ft
Raffreddamento del vento 32 °F
Punto di rugiada 30 °F
Umidità 75%
Piovosità 0.00 in
Spessore del manto nevoso Non disponibile.
6:53 AM 7:27 PM
Luna crescente, 3% visible
METAR K20V 291054Z AUTO 36006KT 10SM SCT065 03/M01 A3010 RMK AO2

Get Severe Weather Alerts

Thanks for signing up!

Be on the lookout for a verification email in your inbox.

You'll start receiving the daily forecast at 8 AM.

×

10-Day Weather Forecast

Almanac

Astronomia

Mar. 29, 2017 Alba Tramonto
Ora attuale
Crepuscolo civile
Crepuscolo nautico
Crepuscolo astronomico
Luna
Estensione della luce visibile
Lunghezza del giorno
Tomorrow will be .
, % of the Moon is Illuminated

Gli estremi di oggi

State Highs State Lows

Community

WunderPhotos

Upload Photos

1,962,540 foto caricate!

WunderBlog® & News

Nearby

Qualità dell'aria

  Qualità dell'aria Indice AQ Inquinante
Not available.

Profondità neve

Stazione Profondità Altitudine

Attività sismica

Città  Distanza Mag. Data & Ora
Minimo Magnitudo Mostrato è 2.5.

Attività sismica

Città  Distanza Mag. Data & Ora
Minimo Magnitudo Mostrato è 2.5.

Temperature delle acque costiere

Località Temperatura

Stations

Stazioni meteo nelle vicinanze

Ubicazione della stazione Temp. Raffreddamento del vento Punto di rugiada Umidità Vento Precip. Alt. Aggiornato Tipo
                   

Watches & Warnings

There are currently no watches in effect.